Time;durP1;ratioP1;P1;durP2;ratioP2;P2;SDS_P1;SDS_P2;PMS_P1;PMS_P2;Temp;Humidity;BMP_temperature;BMP_pressure;BME280_temperature;BME280_humidity;BME280_pressure;Samples;Min_cycle;Max_cycle;Signal;HPM_P1;HPM_P2
2022/04/22 00:00:20;;;;;;;3.75;3.45;;;;;;;6.70;91.01;94669.91;5030513;28;24847;-71
2022/04/22 00:02:47;;;;;;;4.00;3.40;;;;;;;6.37;94.09;94672.88;5029856;28;24426;-71
2022/04/22 00:05:13;;;;;;;4.50;3.60;;;;;;;6.39;94.45;94670.25;5029711;28;24965;-70
2022/04/22 00:07:39;;;;;;;4.80;3.67;;;;;;;6.35;95.11;94671.34;5030310;28;24470;-70
2022/04/22 00:10:09;;;;;;;5.38;3.67;;;;;;;6.21;96.43;94667.91;5030516;28;24423;-70
2022/04/22 00:12:36;;;;;;;3.75;3.30;;;;;;;6.15;96.15;94668.28;5030181;28;24432;-71
2022/04/22 00:15:03;;;;;;;4.88;3.25;;;;;;;6.12;96.57;94667.66;5030264;28;24416;-71
2022/04/22 00:17:30;;;;;;;4.28;3.50;;;;;;;6.05;98.20;94665.47;5031854;28;24436;-71
2022/04/22 00:19:57;;;;;;;4.15;3.42;;;;;;;5.96;98.38;94660.91;5034090;28;24423;-71
2022/04/22 00:22:24;;;;;;;5.88;4.22;;;;;;;6.12;98.17;94660.78;5034184;28;24481;-71
2022/04/22 00:24:50;;;;;;;3.50;3.20;;;;;;;6.32;96.21;94663.84;5034243;28;24515;-71
2022/04/22 00:27:17;;;;;;;4.30;3.42;;;;;;;6.50;95.10;94652.38;5034258;28;24423;-70
2022/04/22 00:29:44;;;;;;;4.30;3.90;;;;;;;6.57;94.04;94645.91;5034157;28;24423;-70
2022/04/22 00:32:10;;;;;;;3.97;3.60;;;;;;;6.54;95.08;94651.25;5033918;28;24416;-71
2022/04/22 00:34:38;;;;;;;4.05;3.50;;;;;;;6.54;95.27;94652.06;5033873;28;24420;-71
2022/04/22 00:37:05;;;;;;;4.68;4.15;;;;;;;6.56;94.91;94649.38;5033921;28;24458;-71
2022/04/22 00:39:31;;;;;;;4.63;3.90;;;;;;;6.65;93.45;94648.78;5034046;28;24420;-71
2022/04/22 00:41:58;;;;;;;6.35;3.60;;;;;;;6.56;92.90;94646.81;5033677;28;24949;-71
2022/04/22 00:44:24;;;;;;;4.82;3.95;;;;;;;6.57;94.61;94645.09;5033909;28;24766;-72
2022/04/22 00:46:51;;;;;;;5.55;3.88;;;;;;;6.54;93.78;94641.78;5033454;28;24424;-71
2022/04/22 00:49:18;;;;;;;4.47;3.58;;;;;;;6.53;94.23;94642.72;5033553;28;24508;-71
2022/04/22 00:51:46;;;;;;;4.70;3.35;;;;;;;6.49;93.30;94635.28;5033749;28;24422;-71
2022/04/22 00:54:13;;;;;;;4.25;3.85;;;;;;;6.37;95.58;94631.75;5033761;28;24423;-71
2022/04/22 00:56:40;;;;;;;5.25;4.22;;;;;;;6.49;95.04;94632.72;5033410;28;24809;-70
2022/04/22 00:59:07;;;;;;;7.57;3.13;;;;;;;6.42;89.87;94629.72;5033739;28;24420;-70
2022/04/22 01:01:35;;;;;;;6.38;3.90;;;;;;;6.28;95.82;94629.78;5033175;28;24971;-71
2022/04/22 01:09:48;;;;;;;4.03;3.38;;;;;;;6.07;96.24;94622.50;5033664;28;24489;-71
2022/04/22 01:12:15;;;;;;;5.57;4.25;;;;;;;5.84;95.69;94623.09;5033073;28;24420;-70
2022/04/22 01:14:42;;;;;;;4.15;3.25;;;;;;;5.68;92.48;94619.84;5033407;28;24419;-70
2022/04/22 01:17:09;;;;;;;3.28;2.95;;;;;;;5.72;90.46;94618.72;5033172;28;24810;-70
2022/04/22 01:19:36;;;;;;;6.35;3.90;;;;;;;5.42;97.55;94619.69;5033324;28;24419;-70
2022/04/22 01:22:05;;;;;;;5.53;4.72;;;;;;;5.41;100.00;94617.19;5032923;28;24992;-70
2022/04/22 01:24:31;;;;;;;8.27;4.10;;;;;;;5.48;98.23;94616.72;5033087;28;24459;-70
2022/04/22 01:26:58;;;;;;;5.80;4.65;;;;;;;5.29;100.00;94611.91;5032842;28;24428;-70
2022/04/22 01:29:25;;;;;;;6.30;4.65;;;;;;;5.18;100.00;94609.16;5032575;28;24455;-71
2022/04/22 01:31:51;;;;;;;6.93;4.93;;;;;;;5.37;100.00;94592.63;5033003;28;24427;-70
2022/04/22 01:34:18;;;;;;;5.60;4.47;;;;;;;5.50;100.00;94588.41;5033138;28;24829;-71
2022/04/22 01:36:44;;;;;;;5.45;4.85;;;;;;;5.59;100.00;94587.81;5032630;28;24956;-70
2022/04/22 01:39:12;;;;;;;6.80;4.23;;;;;;;5.66;100.00;94588.28;5032910;28;24525;-71
2022/04/22 01:41:40;;;;;;;3.92;3.53;;;;;;;5.74;99.30;94591.19;5032883;28;24427;-72
2022/04/22 01:44:06;;;;;;;4.53;4.13;;;;;;;5.68;100.00;94583.88;5032988;28;24831;-72
2022/04/22 01:46:33;;;;;;;5.28;3.45;;;;;;;5.57;98.07;94580.22;5032450;28;24490;-71
2022/04/22 01:48:59;;;;;;;3.92;3.53;;;;;;;5.56;98.89;94573.44;5032393;28;24860;-71
2022/04/22 01:51:26;;;;;;;5.57;3.55;;;;;;;5.50;96.03;94573.81;5030660;28;24837;-71
2022/04/22 01:53:52;;;;;;;3.50;3.17;;;;;;;5.44;97.33;94566.50;5030442;28;24419;-70
2022/04/22 01:56:21;;;;;;;4.55;4.15;;;;;;;5.39;98.19;94570.28;5030557;28;24847;-70
2022/04/22 01:58:47;;;;;;;4.82;4.13;;;;;;;5.41;99.09;94563.28;5031090;28;24479;-70
2022/04/22 02:01:14;;;;;;;5.15;4.50;;;;;;;5.39;100.00;94565.13;5030546;28;24435;-70
2022/04/22 02:03:40;;;;;;;5.20;4.70;;;;;;;5.31;100.00;94557.91;5031024;28;24481;-70
2022/04/22 02:06:07;;;;;;;3.70;3.30;;;;;;;5.40;96.02;94562.47;5031795;28;24424;-70
2022/04/22 02:08:36;;;;;;;4.45;3.78;;;;;;;5.25;96.94;94559.09;5032256;28;24412;-70
2022/04/22 02:11:02;;;;;;;3.67;3.38;;;;;;;5.21;93.23;94549.94;5032158;28;25003;-70
2022/04/22 02:13:36;;;;;;;5.13;3.85;;;;;;;5.03;98.19;94564.72;5032167;28;24415;-70
2022/04/22 02:16:04;;;;;;;5.82;3.55;;;;;;;4.95;97.26;94563.53;5031831;28;24442;-70
2022/04/22 02:18:31;;;;;;;5.05;4.35;;;;;;;4.89;99.58;94561.31;5032015;28;24543;-70
2022/04/22 02:20:57;;;;;;;6.07;5.47;;;;;;;5.12;100.00;94553.09;5032087;28;24515;-70
2022/04/22 02:23:24;;;;;;;6.72;6.13;;;;;;;5.26;100.00;94550.47;5032106;28;24419;-70
2022/04/22 02:25:50;;;;;;;4.97;4.28;;;;;;;5.18;98.95;94544.16;5031935;28;24430;-70
2022/04/22 02:28:34;;;;;;;5.40;4.90;;;;;;;5.21;100.00;94546.56;5032021;28;24419;-71
2022/04/22 02:31:07;;;;;;;5.72;5.18;;;;;;;5.04;100.00;94543.28;5031801;28;24435;-71
2022/04/22 02:33:34;;;;;;;8.70;6.40;;;;;;;5.10;100.00;94535.19;5031661;28;24478;-71
2022/04/22 02:36:01;;;;;;;6.30;5.40;;;;;;;5.15;100.00;94528.94;5031862;28;24848;-71
2022/04/22 02:38:28;;;;;;;9.23;5.65;;;;;;;5.12;100.00;94519.72;5054311;22;24984;-77
2022/04/22 02:46:26;;;;;;;8.32;4.40;;;;;;;4.83;97.19;94534.31;5015251;28;24860;-77
2022/04/22 02:48:52;;;;;;;5.45;4.10;;;;;;;4.76;97.88;94528.72;5015418;28;24432;-78
2022/04/22 02:51:19;;;;;;;7.63;6.90;;;;;;;4.81;100.00;94523.31;5015498;28;25009;-77
2022/04/22 02:53:45;;;;;;;10.35;6.65;;;;;;;4.81;100.00;94520.72;5015680;28;24510;-77
2022/04/22 02:56:12;;;;;;;8.30;6.80;;;;;;;4.87;100.00;94510.13;5015298;28;24427;-77
2022/04/22 02:58:41;;;;;;;8.10;7.22;;;;;;;4.88;100.00;94504.06;5013843;28;24460;-77
2022/04/22 03:01:07;;;;;;;8.73;7.70;;;;;;;4.83;100.00;94500.97;5013656;28;24465;-78
2022/04/22 03:03:35;;;;;;;7.45;6.65;;;;;;;4.88;100.00;94501.50;5013152;28;24505;-78
2022/04/22 03:06:02;;;;;;;6.05;5.43;;;;;;;4.69;100.00;94501.78;5013839;28;24436;-78
2022/04/22 03:08:29;;;;;;;9.75;8.45;;;;;;;4.69;100.00;94503.53;5014382;28;24452;-77
2022/04/22 03:10:56;;;;;;;8.40;5.38;;;;;;;4.52;100.00;94489.94;5013066;28;24444;-77
2022/04/22 03:13:22;;;;;;;7.82;6.90;;;;;;;4.62;100.00;94500.50;5012287;28;24854;-77
2022/04/22 03:15:49;;;;;;;7.35;5.85;;;;;;;4.53;100.00;94498.50;5012238;28;24435;-77
2022/04/22 03:18:15;;;;;;;6.30;5.10;;;;;;;4.60;93.94;94503.16;5011776;28;24453;-77
2022/04/22 03:20:43;;;;;;;7.18;6.47;;;;;;;4.36;99.15;94496.91;5012041;28;24433;-77
2022/04/22 03:23:10;;;;;;;8.40;6.15;;;;;;;4.17;100.00;94493.78;5012860;28;24482;-77
2022/04/22 03:25:36;;;;;;;8.85;7.47;;;;;;;4.32;100.00;94498.84;5012721;28;24431;-77
2022/04/22 03:28:04;;;;;;;8.10;6.68;;;;;;;4.26;100.00;94498.38;5011599;28;24957;-76
2022/04/22 03:30:31;;;;;;;8.07;6.63;;;;;;;4.28;100.00;94487.13;5012771;28;24433;-77
2022/04/22 03:32:57;;;;;;;6.05;5.50;;;;;;;4.28;100.00;94497.38;5012230;28;24969;-76
2022/04/22 03:35:24;;;;;;;6.97;6.30;;;;;;;4.23;100.00;94499.38;5012132;28;24428;-77
2022/04/22 03:37:52;;;;;;;7.35;6.63;;;;;;;4.11;100.00;94495.78;5012261;28;24463;-77
2022/04/22 03:40:18;;;;;;;9.25;8.27;;;;;;;4.05;100.00;94490.19;5012362;28;24515;-77
2022/04/22 03:42:45;;;;;;;8.30;7.05;;;;;;;4.20;100.00;94493.63;5011728;28;24953;-76
2022/04/22 03:45:11;;;;;;;15.30;6.80;;;;;;;4.27;100.00;94492.34;5011780;28;24423;-77
2022/04/22 03:47:38;;;;;;;6.50;5.90;;;;;;;4.31;100.00;94491.25;5011952;28;24507;-77
2022/04/22 03:50:05;;;;;;;7.68;6.20;;;;;;;4.36;100.00;94495.16;5011890;28;24433;-76
2022/04/22 03:52:32;;;;;;;6.82;6.15;;;;;;;4.32;100.00;94490.31;5011283;28;24784;-77
2022/04/22 03:54:59;;;;;;;7.85;6.15;;;;;;;4.29;100.00;94498.19;5011527;28;24428;-78
2022/04/22 04:00:10;;;;;;;6.28;5.68;;;;;;;4.32;100.00;94487.75;5011826;28;24973;-77
2022/04/22 04:02:37;;;;;;;6.75;5.47;;;;;;;4.06;100.00;94489.28;5011366;28;24424;-78
2022/04/22 04:05:03;;;;;;;7.05;5.57;;;;;;;3.91;100.00;94488.41;5012057;28;24416;-77
2022/04/22 04:07:30;;;;;;;8.63;7.83;;;;;;;3.88;100.00;94486.03;5012133;28;24829;-77
2022/04/22 04:18:10;;;;;;;9.07;8.10;;;;;;;3.97;100.00;94495.75;5011341;28;24420;-75
2022/04/22 04:23:21;;;;;;;7.97;7.25;;;;;;;3.77;100.00;94498.63;5011804;28;24439;-76
2022/04/22 04:25:49;;;;;;;8.68;7.82;;;;;;;3.85;100.00;94494.69;5011502;28;24436;-76
2022/04/22 04:28:17;;;;;;;9.33;6.90;;;;;;;3.93;100.00;94491.72;5011115;28;24611;-77
2022/04/22 04:30:46;;;;;;;6.97;6.28;;;;;;;3.93;100.00;94503.69;5011433;28;24440;-77
2022/04/22 04:33:12;;;;;;;6.80;6.10;;;;;;;3.95;100.00;94497.56;5010787;28;25028;-77
2022/04/22 04:35:40;;;;;;;7.03;6.38;;;;;;;4.03;100.00;94500.53;5010819;28;24483;-77
2022/04/22 04:38:07;;;;;;;9.10;7.93;;;;;;;3.99;100.00;94493.91;5011088;28;24539;-77
2022/04/22 04:40:35;;;;;;;14.10;9.50;;;;;;;3.72;100.00;94501.44;5010659;28;24962;-77
2022/04/22 04:43:01;;;;;;;12.07;10.13;;;;;;;3.57;100.00;94490.34;5010774;28;24960;-76
2022/04/22 04:45:29;;;;;;;11.00;9.40;;;;;;;3.56;100.00;94493.81;5010863;28;24833;-76
2022/04/22 04:47:55;;;;;;;13.50;9.30;;;;;;;3.43;100.00;94486.88;5010100;28;25043;-74
2022/04/22 04:50:22;;;;;;;11.27;9.50;;;;;;;3.39;100.00;94486.22;5028562;28;24443;-74
2022/04/22 04:52:48;;;;;;;10.07;9.03;;;;;;;3.49;100.00;94491.69;5030031;28;24509;-74
2022/04/22 04:55:15;;;;;;;13.10;10.40;;;;;;;3.72;100.00;94486.09;5031027;28;24504;-77
2022/04/22 04:57:43;;;;;;;13.30;10.90;;;;;;;3.74;100.00;94491.09;5030595;28;24424;-75
2022/04/22 05:00:11;;;;;;;11.55;10.35;;;;;;;3.71;100.00;94494.69;5030480;28;24849;-75
2022/04/22 05:02:39;;;;;;;13.57;10.05;;;;;;;3.68;100.00;94496.59;5030727;28;24789;-75
2022/04/22 05:05:07;;;;;;;11.85;10.60;;;;;;;3.60;100.00;94497.84;5033129;28;24952;-75
2022/04/22 05:07:34;;;;;;;10.93;9.37;;;;;;;3.65;100.00;94500.13;5034108;28;24775;-75
2022/04/22 05:10:00;;;;;;;10.07;8.70;;;;;;;3.82;100.00;94502.59;5034319;28;24443;-75
2022/04/22 05:12:27;;;;;;;11.15;8.77;;;;;;;4.03;100.00;94503.06;5033544;28;24447;-76
2022/04/22 05:14:53;;;;;;;9.70;8.70;;;;;;;4.22;100.00;94505.41;5034183;28;24443;-75
2022/04/22 05:17:20;;;;;;;11.77;8.50;;;;;;;4.32;100.00;94501.41;5034201;28;24435;-75
2022/04/22 05:19:47;;;;;;;9.02;7.70;;;;;;;4.45;100.00;94501.53;5034232;28;24467;-75
2022/04/22 05:22:14;;;;;;;7.55;6.85;;;;;;;4.55;100.00;94491.53;5034292;28;24432;-75
2022/04/22 05:24:40;;;;;;;8.07;7.38;;;;;;;4.70;100.00;94485.47;5034515;28;24435;-75
2022/04/22 05:27:07;;;;;;;8.98;8.15;;;;;;;4.83;100.00;94483.00;5034287;28;24466;-74
2022/04/22 05:35:03;;;;;;;12.95;11.43;;;;;;;5.03;100.00;94487.72;5033110;28;24412;-76
2022/04/22 05:37:42;;;;;;;15.23;12.83;;;;;;;5.08;100.00;94487.47;5033659;28;24436;-73
2022/04/22 05:40:10;;;;;;;16.90;13.02;;;;;;;5.05;100.00;94492.78;5032735;28;25039;-75
2022/04/22 05:42:37;;;;;;;14.77;13.27;;;;;;;5.21;100.00;94490.09;5033041;28;24423;-74
2022/04/22 05:45:05;;;;;;;14.47;12.93;;;;;;;5.33;100.00;94487.56;5036890;28;24469;-76
2022/04/22 05:47:32;;;;;;;14.10;12.25;;;;;;;5.47;100.00;94488.44;5027242;28;25163;-76
2022/04/22 05:49:58;;;;;;;14.45;12.38;;;;;;;5.71;100.00;94488.63;5033240;28;24432;-76
2022/04/22 05:52:26;;;;;;;16.80;14.93;;;;;;;5.79;100.00;94488.97;5030919;28;24432;-75
2022/04/22 05:54:53;;;;;;;18.55;16.55;;;;;;;6.02;100.00;94490.91;5014702;28;24795;-76
2022/04/22 05:57:20;;;;;;;18.92;16.52;;;;;;;5.78;100.00;94488.16;5032735;28;24424;-76
2022/04/22 05:59:48;;;;;;;17.08;15.32;;;;;;;5.78;100.00;94490.72;5031463;28;24475;-68
2022/04/22 06:02:15;;;;;;;16.83;14.48;;;;;;;6.13;100.00;94481.66;5031481;28;24461;-75
2022/04/22 06:04:41;;;;;;;18.42;16.38;;;;;;;6.16;100.00;94489.19;5035209;28;24434;-73
2022/04/22 06:07:08;;;;;;;18.70;16.80;;;;;;;6.47;100.00;94493.91;5035682;28;24508;-74
2022/04/22 06:12:21;;;;;;;19.05;17.00;;;;;;;6.81;100.00;94489.06;5033071;28;24430;-75
2022/04/22 06:14:47;;;;;;;19.67;17.03;;;;;;;6.89;100.00;94481.63;5034675;28;24999;-75
2022/04/22 06:17:14;;;;;;;19.93;17.80;;;;;;;7.23;100.00;94485.28;5013575;28;24427;-76
2022/04/22 06:19:41;;;;;;;21.25;19.00;;;;;;;7.44;100.00;94484.69;5013742;28;24459;-75
2022/04/22 06:22:07;;;;;;;20.23;18.13;;;;;;;7.44;100.00;94477.78;5013922;28;24431;-75
2022/04/22 06:24:35;;;;;;;23.23;20.27;;;;;;;7.27;100.00;94473.84;5014502;28;24436;-75
2022/04/22 06:27:02;;;;;;;23.48;19.38;;;;;;;7.42;100.00;94477.06;5012809;28;24762;-75
2022/04/22 06:29:29;;;;;;;22.77;19.58;;;;;;;7.60;100.00;94479.25;5028310;28;25008;-74
2022/04/22 06:31:56;;;;;;;20.77;18.58;;;;;;;7.83;100.00;94480.19;5031798;28;24620;-68
2022/04/22 06:34:23;;;;;;;22.30;20.00;;;;;;;7.76;100.00;94479.81;5031663;28;24415;-72
2022/04/22 06:36:50;;;;;;;24.48;20.60;;;;;;;7.83;100.00;94481.00;5032188;28;24497;-73
2022/04/22 06:39:17;;;;;;;24.40;21.87;;;;;;;8.03;100.00;94481.31;5031352;28;24542;-72
2022/04/22 06:47:14;;;;;;;24.75;22.05;;;;;;;7.81;100.00;94475.13;5032474;28;24442;-74
2022/04/22 06:49:41;;;;;;;24.20;21.00;;;;;;;7.67;100.00;94481.28;5032377;28;24439;-73
2022/04/22 06:52:09;;;;;;;26.15;21.25;;;;;;;7.90;100.00;94474.47;5032259;28;24427;-73
2022/04/22 06:54:37;;;;;;;23.45;21.10;;;;;;;8.15;100.00;94476.06;5032364;28;24430;-74
2022/04/22 06:57:05;;;;;;;25.48;21.52;;;;;;;7.96;100.00;94466.28;5031746;28;25033;-76
2022/04/22 06:59:32;;;;;;;22.23;20.00;;;;;;;8.24;100.00;94466.84;5031847;28;24513;-76
2022/04/22 07:01:59;;;;;;;23.10;20.65;;;;;;;8.81;100.00;94462.59;5031516;28;24432;-76
2022/04/22 07:04:26;;;;;;;25.92;21.83;;;;;;;9.05;100.00;94465.88;5031765;28;24482;-75
2022/04/22 07:06:53;;;;;;;25.58;21.38;;;;;;;8.98;100.00;94469.03;5031714;28;24515;-75
2022/04/22 07:09:20;;;;;;;27.55;21.17;;;;;;;8.92;100.00;94465.97;5031296;28;24411;-75
2022/04/22 07:11:51;;;;;;;22.60;20.38;;;;;;;9.17;100.00;94464.09;5033372;28;24431;-75
2022/04/22 07:14:21;;;;;;;23.55;21.05;;;;;;;9.47;100.00;94457.44;5031456;28;24817;-75
2022/04/22 07:16:48;;;;;;;24.15;20.98;;;;;;;9.59;100.00;94459.06;5031273;28;24438;-74
2022/04/22 07:19:15;;;;;;;21.80;19.53;;;;;;;9.67;96.58;94467.00;5031458;28;20968;-74
2022/04/22 07:21:42;;;;;;;24.42;20.83;;;;;;;9.67;96.76;94460.06;5031936;28;20769;-74
2022/04/22 07:24:09;;;;;;;22.17;19.88;;;;;;;9.37;95.95;94455.59;5031385;28;20753;-74
2022/04/22 07:26:38;;;;;;;21.42;19.40;;;;;;;9.90;98.98;94445.31;5030544;28;24442;-73
2022/04/22 07:29:07;;;;;;;22.05;19.77;;;;;;;9.91;94.14;94444.34;5031002;28;24431;-73
2022/04/22 07:31:36;;;;;;;22.75;20.23;;;;;;;9.99;94.10;94445.50;5030777;28;21416;-74
2022/04/22 07:34:02;;;;;;;21.63;19.20;;;;;;;10.20;96.19;94438.56;5030663;28;20818;-74
2022/04/22 07:36:29;;;;;;;21.88;19.65;;;;;;;10.12;93.13;94446.97;5031190;28;24469;-74
2022/04/22 07:38:56;;;;;;;21.70;19.35;;;;;;;9.97;91.39;94445.63;5037063;28;24470;-74
2022/04/22 07:41:26;;;;;;;20.55;18.45;;;;;;;10.29;95.26;94448.19;5037510;28;24435;-74
2022/04/22 07:46:51;;;;;;;21.95;19.63;;;;;;;10.63;94.15;94438.41;5031507;28;20641;-73
2022/04/22 07:49:20;;;;;;;29.33;19.98;;;;;;;10.74;91.35;94432.34;5031036;28;20759;-74
2022/04/22 07:51:46;;;;;;;21.67;19.25;;;;;;;11.02;93.63;94442.97;5030921;28;20866;-75
2022/04/22 07:54:13;;;;;;;40.05;19.23;;;;;;;10.26;89.27;94434.69;5030810;28;24431;-74
2022/04/22 07:56:41;;;;;;;22.75;20.25;;;;;;;10.21;92.35;94429.88;5030669;28;24505;-70
2022/04/22 07:59:08;;;;;;;25.88;20.55;;;;;;;10.72;94.84;94434.25;5030698;28;21001;-76
2022/04/22 08:01:34;;;;;;;22.02;19.10;;;;;;;10.59;87.62;94437.03;5030070;28;24411;-73
2022/04/22 08:04:03;;;;;;;21.67;19.37;;;;;;;10.70;92.39;94436.13;5022446;28;24459;-74
2022/04/22 08:06:30;;;;;;;20.90;18.85;;;;;;;11.24;91.32;94439.34;5028600;28;21610;-74
2022/04/22 08:08:56;;;;;;;23.27;20.25;;;;;;;11.44;88.99;94433.22;5029152;28;24439;-73
2022/04/22 08:11:23;;;;;;;21.83;18.95;;;;;;;11.64;87.80;94439.25;5027984;28;20769;-73
2022/04/22 08:13:49;;;;;;;24.67;18.92;;;;;;;11.55;85.37;94432.28;5028876;28;24513;-73
2022/04/22 08:16:16;;;;;;;21.27;18.25;;;;;;;11.72;82.56;94438.59;5029062;28;25071;-73
2022/04/22 08:18:42;;;;;;;21.33;19.02;;;;;;;11.57;83.94;94445.97;5028921;28;24523;-74
2022/04/22 08:21:10;;;;;;;20.95;18.45;;;;;;;11.71;82.53;94442.13;5030128;28;24497;-74
2022/04/22 08:23:37;;;;;;;22.10;18.85;;;;;;;11.83;82.44;94441.91;5030467;28;20802;-73
2022/04/22 08:26:04;;;;;;;25.00;19.45;;;;;;;12.30;84.37;94444.59;5029087;28;24873;-73
2022/04/22 08:28:30;;;;;;;20.63;18.52;;;;;;;12.21;79.30;94440.25;5030176;28;24490;-74
2022/04/22 08:30:57;;;;;;;19.88;17.83;;;;;;;12.39;81.45;94437.75;5029982;28;24424;-75
2022/04/22 08:33:23;;;;;;;20.27;18.23;;;;;;;12.40;82.75;94434.19;5027619;28;24432;-75
2022/04/22 08:35:51;;;;;;;22.40;17.70;;;;;;;12.29;82.44;94435.16;5029707;28;24997;-74
2022/04/22 08:38:19;;;;;;;21.45;18.80;;;;;;;12.24;83.20;94432.19;5029862;28;24515;-75
2022/04/22 08:40:46;;;;;;;22.50;19.88;;;;;;;12.32;82.06;94436.69;5033663;28;24455;-77
2022/04/22 08:43:15;;;;;;;27.20;18.38;;;;;;;12.51;84.09;94438.41;5033768;28;24436;-77
2022/04/22 08:45:41;;;;;;;23.97;17.10;;;;;;;12.57;82.41;94424.88;5034185;28;24989;-75
2022/04/22 08:50:55;;;;;;;23.55;19.00;;;;;;;12.95;83.15;94418.72;5034221;28;21113;-76
2022/04/22 08:53:28;;;;;;;19.38;17.33;;;;;;;12.78;81.23;94415.06;5032915;28;24529;-76
2022/04/22 08:55:57;;;;;;;19.25;17.17;;;;;;;13.05;83.91;94410.84;5034148;28;24451;-77
2022/04/22 08:58:26;;;;;;;19.60;17.33;;;;;;;13.15;78.63;94411.63;5035933;28;24434;-77
2022/04/22 09:00:53;;;;;;;19.20;17.20;;;;;;;13.13;78.12;94413.56;5032522;28;24456;-77
2022/04/22 09:03:20;;;;;;;19.15;17.23;;;;;;;13.17;83.62;94407.13;5036305;28;24473;-78
2022/04/22 09:05:47;;;;;;;19.85;17.75;;;;;;;13.22;81.36;94415.28;5034404;28;24416;-77
2022/04/22 09:08:14;;;;;;;19.38;17.25;;;;;;;13.10;77.92;94408.66;5034101;28;24431;-76
2022/04/22 09:10:42;;;;;;;23.40;17.77;;;;;;;13.28;78.42;94406.94;5032488;28;24523;-76
2022/04/22 09:13:10;;;;;;;18.50;16.67;;;;;;;13.00;79.01;94407.88;5032614;28;24659;-77
2022/04/22 09:15:39;;;;;;;19.88;16.42;;;;;;;13.31;77.37;94401.47;5029495;28;24436;-76
2022/04/22 09:18:14;;;;;;;18.57;16.43;;;;;;;13.49;75.28;94409.25;5032898;28;24524;-76
2022/04/22 09:20:41;;;;;;;18.60;16.70;;;;;;;13.71;79.10;94397.59;5030827;28;25050;-74
2022/04/22 09:23:23;;;;;;;20.98;16.67;;;;;;;13.55;73.68;94400.88;5030172;28;24439;-77
2022/04/22 09:25:51;;;;;;;19.50;17.47;;;;;;;13.51;75.53;94398.72;5031703;28;24582;-76
2022/04/22 09:28:37;;;;;;;18.95;16.65;;;;;;;13.88;77.96;94384.75;5043332;28;24493;-76
2022/04/22 09:31:06;;;;;;;16.05;14.35;;;;;;;14.00;72.96;94388.75;5040394;28;25013;-74
2022/04/22 09:33:43;;;;;;;21.38;14.32;;;;;;;14.06;70.16;94392.53;5031045;28;24455;-75
2022/04/22 09:44:52;;;;;;;16.20;14.65;;;;;;;13.56;69.16;94373.06;5060309;28;24637;-77
2022/04/22 09:47:19;;;;;;;16.10;14.43;;;;;;;13.60;72.60;94371.81;5057526;28;24446;-77
2022/04/22 09:49:47;;;;;;;15.90;14.30;;;;;;;13.88;70.55;94380.34;5041704;28;24443;-77
2022/04/22 09:52:13;;;;;;;17.77;14.90;;;;;;;14.11;74.89;94374.66;5042941;28;24436;-77
2022/04/22 09:54:40;;;;;;;17.08;15.32;;;;;;;13.99;73.13;94379.31;5045633;28;24436;-77
2022/04/22 09:57:09;;;;;;;21.33;15.32;;;;;;;14.21;73.07;94381.41;5023416;28;24469;-76
2022/04/22 09:59:36;;;;;;;18.13;15.32;;;;;;;14.30;74.79;94374.47;5036555;28;24455;-76
2022/04/22 10:02:04;;;;;;;17.08;13.75;;;;;;;14.60;73.21;94382.81;5038603;28;24424;-76
2022/04/22 10:04:38;;;;;;;16.87;15.00;;;;;;;14.64;68.35;94382.34;5041107;28;24432;-77
2022/04/22 10:07:05;;;;;;;18.27;16.27;;;;;;;14.68;71.85;94381.09;5036741;28;24825;-76
2022/04/22 10:09:38;;;;;;;20.25;15.50;;;;;;;15.07;71.10;94377.19;5033673;28;24498;-75
2022/04/22 10:12:11;;;;;;;16.63;14.93;;;;;;;14.80;67.13;94380.81;5035342;28;24470;-76
2022/04/22 10:14:39;;;;;;;17.23;15.43;;;;;;;14.76;70.50;94381.13;5033322;28;24961;-79
2022/04/22 10:17:07;;;;;;;18.98;14.35;;;;;;;14.73;70.91;94376.22;5025085;28;24427;-77
2022/04/22 10:19:35;;;;;;;17.23;15.13;;;;;;;14.54;69.33;94379.06;5032922;28;24466;-75
2022/04/22 10:22:02;;;;;;;18.42;14.88;;;;;;;14.86;69.30;94373.16;5033508;28;24454;-77
2022/04/22 10:24:31;;;;;;;16.05;14.50;;;;;;;14.92;69.20;94366.53;5024390;28;24436;-74
2022/04/22 10:26:59;;;;;;;18.20;15.23;;;;;;;14.92;71.55;94369.94;5034838;28;24431;-74
2022/04/22 10:29:29;;;;;;;16.48;14.77;;;;;;;14.65;69.18;94373.59;5033241;28;24979;-75
2022/04/22 10:31:56;;;;;;;17.45;14.85;;;;;;;14.22;66.51;94383.06;5033180;28;24825;-77
2022/04/22 10:34:37;;;;;;;18.77;15.98;;;;;;;14.57;72.07;94372.69;5033009;28;24423;-76
2022/04/22 10:37:04;;;;;;;16.67;15.02;;;;;;;14.55;72.75;94380.69;5033057;28;24479;-76
2022/04/22 10:39:34;;;;;;;17.92;15.90;;;;;;;14.88;70.58;94383.47;5033527;28;24443;-76
2022/04/22 10:42:01;;;;;;;22.55;15.93;;;;;;;14.95;70.71;94384.47;5049895;28;24530;-74
2022/04/22 10:47:16;;;;;;;16.53;14.83;;;;;;;14.89;73.93;94382.47;5056682;28;24453;-76
2022/04/22 10:49:44;;;;;;;17.80;15.63;;;;;;;14.73;68.25;94388.44;5053148;28;24419;-77
2022/04/22 10:52:13;;;;;;;22.47;16.43;;;;;;;14.73;68.84;94372.81;5051456;28;24474;-77
2022/04/22 10:55:08;;;;;;;20.85;15.45;;;;;;;14.79;73.59;94371.34;5051457;28;24431;-76
2022/04/22 10:57:35;;;;;;;17.17;15.20;;;;;;;14.67;73.34;94363.81;5050900;28;24446;-76
2022/04/22 11:00:27;;;;;;;16.70;14.98;;;;;;;14.41;65.99;94371.63;5032732;28;24801;-76
2022/04/22 11:03:02;;;;;;;20.35;14.90;;;;;;;14.11;67.57;94372.88;5038440;28;24443;-75
2022/04/22 11:05:35;;;;;;;17.20;15.35;;;;;;;14.25;67.61;94379.34;5030724;28;24431;-76
2022/04/22 11:08:01;;;;;;;17.25;15.45;;;;;;;14.28;70.60;94360.81;5030987;28;24519;-76
2022/04/22 11:10:30;;;;;;;18.23;14.40;;;;;;;14.60;68.18;94375.00;5034545;28;24466;-74
2022/04/22 11:12:57;;;;;;;17.65;15.75;;;;;;;14.61;69.02;94359.22;5051695;28;24850;-76
2022/04/22 11:15:50;;;;;;;18.08;14.85;;;;;;;14.36;67.46;94360.84;5050955;28;24442;-75
2022/04/22 11:18:18;;;;;;;16.80;15.02;;;;;;;14.19;69.04;94362.50;5041837;28;24438;-76
2022/04/22 11:20:48;;;;;;;17.75;15.02;;;;;;;14.08;67.85;94367.97;5032042;28;24502;-77
2022/04/22 11:23:14;;;;;;;15.88;14.20;;;;;;;14.09;70.50;94372.22;5031710;28;24428;-76
2022/04/22 11:25:42;;;;;;;21.15;15.57;;;;;;;13.61;69.33;94368.25;5030853;28;24416;-76
2022/04/22 11:28:09;;;;;;;16.17;14.48;;;;;;;13.67;68.67;94367.66;5031231;28;24504;-75
2022/04/22 11:30:36;;;;;;;16.50;14.53;;;;;;;13.80;74.48;94370.69;5031224;28;24424;-77
2022/04/22 11:33:17;;;;;;;17.08;15.27;;;;;;;13.83;67.73;94368.75;5030639;28;24419;-76
2022/04/22 11:35:45;;;;;;;18.00;14.52;;;;;;;14.35;78.54;94358.38;5031476;28;24436;-76
2022/04/22 11:38:13;;;;;;;16.73;14.70;;;;;;;14.59;69.04;94357.75;5030599;28;24473;-77
2022/04/22 11:40:40;;;;;;;19.95;15.55;;;;;;;14.64;69.51;94350.28;5035820;28;24848;-76
2022/04/22 11:43:07;;;;;;;17.85;15.27;;;;;;;14.74;73.37;94346.56;5050619;28;24510;-76
2022/04/22 11:45:37;;;;;;;17.15;15.10;;;;;;;14.68;68.23;94360.25;5049975;28;24960;-76
2022/04/22 11:48:11;;;;;;;18.00;14.10;;;;;;;14.51;67.52;94348.09;5050555;28;24411;-74
2022/04/22 11:50:39;;;;;;;15.77;14.05;;;;;;;14.75;72.22;94348.19;5050892;28;24411;-76
2022/04/22 11:53:13;;;;;;;17.17;14.68;;;;;;;14.87;72.99;94348.75;5050278;28;24459;-76
2022/04/22 11:55:41;;;;;;;20.15;15.63;;;;;;;14.98;70.83;94345.88;5050890;28;24556;-77
2022/04/22 11:58:08;;;;;;;17.08;14.43;;;;;;;14.83;67.58;94351.81;5052026;28;24451;-77
2022/04/22 12:06:03;;;;;;;15.52;14.02;;;;;;;14.88;68.90;94346.97;5040175;28;25283;-77
2022/04/22 12:08:30;;;;;;;15.10;13.57;;;;;;;15.02;72.51;94354.19;5034223;28;24424;-73
2022/04/22 12:10:59;;;;;;;16.73;14.35;;;;;;;14.93;67.26;94345.50;5046409;28;24482;-75
2022/04/22 12:13:26;;;;;;;15.75;14.23;;;;;;;15.14;73.01;94344.28;5039918;28;24443;-77
2022/04/22 12:15:54;;;;;;;16.45;14.75;;;;;;;15.23;71.01;94346.75;5035592;28;24454;-77
2022/04/22 12:18:29;;;;;;;21.43;15.13;;;;;;;14.90;65.86;94350.22;5038486;28;25131;-77
2022/04/22 12:20:56;;;;;;;16.08;14.38;;;;;;;14.84;66.82;94346.47;5037645;28;24456;-77
2022/04/22 12:23:23;;;;;;;16.13;14.07;;;;;;;14.91;65.84;94344.88;5032768;28;24431;-77
2022/04/22 12:25:56;;;;;;;16.05;14.30;;;;;;;14.72;65.70;94332.06;5032858;28;24436;-77
2022/04/22 12:28:24;;;;;;;16.65;14.82;;;;;;;15.08;66.19;94337.91;5033022;28;24435;-76